Main page
METAR-TAF:

METAR-TAF

Airports :

Agra Airport

Agra, India

latitude: 27-09-27N, longitude: 077-57-39E, elevation: 168 m

METAR: missing

Time: 09:29 (03:59 UTC)

Forecast

The report was made 6 hours and 29 minutes ago, at 21:30 UTC
Forecast valid from 01 at 00 UTC to 01 at 12 UTC
Wind 2 kt from variable directions
Visibility: 6000 m
Becoming
from 01 at 01 UTC to 01 at 03 UTC
Visibility: 4000 m
Becoming
from 01 at 04 UTC to 01 at 06 UTC
Wind 5 kt from the North/Northwest
Visibility: 6000 m
Temporary
from 01 at 06 UTC to 01 at 12 UTC
Wind 10 kt from the Southwest

TAF: VIAG 282130Z 0100/0112 VRB02KT 6000 NSC BECMG 0101/0103 4000 BRHZ BECMG 0104/0106 34005KT 6000 NSC TEMPO 0106/0112 23010KT

Weather observations and forecasts of more than 4000 airports (METAR and TAF reports).

The available stations are represented by yellow and red dots on the map.

Hover mouse over dot to see the name of the station.

Then click to see weather observations and forecasts.

To change the map : click on the green buttons with a black cross to zoom in, on the green button with a dash to zoom out, or on the green arrows for adjacent maps.


METAR-TAF: